Search for airport 
image banner adimage banner ad
image banner ad

EVGA - Lielvarde (Mil)

Located in Lielvarde, Latvia

ICAO - EVGA, IATA -

Data provided by Airmate  

General information

Coordinates: N56°46'45" E24°51'14"
Elevation is 207 feet MSL.
Magnetic variation is 8° East
View others Airports in Ogre District

Operational data

Open for public use
Current time UTC:
Current local time:
Weather at : EVRA - Riga ( 56 km )
METAR: EVRA 261150Z 10008KT 060V130 CAVOK 23/15 Q1004 NOSIG
TAF: TAF EVRA 260801Z 2609/2709 10010KT CAVOK TEMPO 2610/2615 12015G28KT
View NOTAMs / SUP AIP / TFR affecting this airport [VIEW]
Communications frequencies: [VIEW]

Runways:

RWY identifierQFULength (ft)Width (ft)SurfaceLDA (ft)
18187°8202148CONC+ASPH8202
368202148CONC+ASPH8202

Airport contact information

Address: Lielvarde Latvia

Satellite view of EVGA